sensor_id;sensor_type;location;lat;lon;timestamp;P1;durP1;ratioP1;P2;durP2;ratioP2
173;SDS011;75;48.784;9.364;2022-08-16T00:00:10;7.73;;;5.80;;
173;SDS011;75;48.784;9.364;2022-08-16T00:02:37;7.77;;;5.90;;
173;SDS011;75;48.784;9.364;2022-08-16T00:05:04;6.90;;;5.93;;
173;SDS011;75;48.784;9.364;2022-08-16T00:07:32;7.40;;;5.90;;
173;SDS011;75;48.784;9.364;2022-08-16T00:09:58;9.73;;;6.53;;
173;SDS011;75;48.784;9.364;2022-08-16T00:12:25;7.33;;;5.87;;
173;SDS011;75;48.784;9.364;2022-08-16T00:14:53;9.80;;;6.63;;
173;SDS011;75;48.784;9.364;2022-08-16T00:17:19;7.90;;;6.20;;
173;SDS011;75;48.784;9.364;2022-08-16T00:19:45;7.13;;;6.00;;
173;SDS011;75;48.784;9.364;2022-08-16T00:22:11;7.70;;;6.30;;
173;SDS011;75;48.784;9.364;2022-08-16T00:24:37;6.77;;;5.93;;
173;SDS011;75;48.784;9.364;2022-08-16T00:27:02;8.20;;;6.43;;
173;SDS011;75;48.784;9.364;2022-08-16T00:29:28;7.33;;;6.20;;
173;SDS011;75;48.784;9.364;2022-08-16T00:31:55;6.73;;;5.80;;
173;SDS011;75;48.784;9.364;2022-08-16T00:34:21;7.67;;;5.93;;
173;SDS011;75;48.784;9.364;2022-08-16T00:36:47;8.60;;;6.00;;
173;SDS011;75;48.784;9.364;2022-08-16T00:39:14;10.30;;;6.80;;
173;SDS011;75;48.784;9.364;2022-08-16T00:41:41;7.03;;;6.17;;
173;SDS011;75;48.784;9.364;2022-08-16T00:44:08;8.60;;;6.40;;
173;SDS011;75;48.784;9.364;2022-08-16T00:46:50;9.00;;;6.43;;
173;SDS011;75;48.784;9.364;2022-08-16T00:49:21;8.10;;;6.30;;
173;SDS011;75;48.784;9.364;2022-08-16T00:51:48;8.30;;;6.90;;
173;SDS011;75;48.784;9.364;2022-08-16T00:54:15;10.27;;;7.00;;
173;SDS011;75;48.784;9.364;2022-08-16T00:56:43;9.43;;;7.10;;
173;SDS011;75;48.784;9.364;2022-08-16T00:59:12;10.60;;;7.13;;
173;SDS011;75;48.784;9.364;2022-08-16T01:01:40;8.50;;;6.67;;
173;SDS011;75;48.784;9.364;2022-08-16T01:04:07;7.83;;;6.50;;
173;SDS011;75;48.784;9.364;2022-08-16T01:06:34;11.33;;;6.93;;
173;SDS011;75;48.784;9.364;2022-08-16T01:09:00;10.53;;;7.43;;
173;SDS011;75;48.784;9.364;2022-08-16T01:11:58;9.50;;;6.57;;
173;SDS011;75;48.784;9.364;2022-08-16T01:14:27;7.67;;;6.30;;
173;SDS011;75;48.784;9.364;2022-08-16T01:16:57;8.23;;;7.10;;
173;SDS011;75;48.784;9.364;2022-08-16T01:19:34;8.03;;;6.57;;
173;SDS011;75;48.784;9.364;2022-08-16T01:22:09;9.17;;;7.33;;
173;SDS011;75;48.784;9.364;2022-08-16T01:24:51;8.53;;;6.93;;
173;SDS011;75;48.784;9.364;2022-08-16T01:27:41;8.60;;;6.73;;
173;SDS011;75;48.784;9.364;2022-08-16T01:30:15;8.13;;;6.50;;
173;SDS011;75;48.784;9.364;2022-08-16T01:32:41;8.80;;;7.47;;
173;SDS011;75;48.784;9.364;2022-08-16T01:35:18;10.73;;;6.60;;
173;SDS011;75;48.784;9.364;2022-08-16T01:37:51;8.33;;;6.77;;
173;SDS011;75;48.784;9.364;2022-08-16T01:40:20;8.33;;;6.73;;
173;SDS011;75;48.784;9.364;2022-08-16T01:42:48;7.90;;;6.80;;
173;SDS011;75;48.784;9.364;2022-08-16T01:45:16;8.30;;;6.90;;
173;SDS011;75;48.784;9.364;2022-08-16T01:47:42;10.00;;;7.10;;
173;SDS011;75;48.784;9.364;2022-08-16T01:50:10;9.40;;;7.30;;
173;SDS011;75;48.784;9.364;2022-08-16T01:52:35;9.03;;;6.73;;
173;SDS011;75;48.784;9.364;2022-08-16T01:55:03;8.67;;;7.20;;
173;SDS011;75;48.784;9.364;2022-08-16T01:57:29;9.80;;;6.90;;
173;SDS011;75;48.784;9.364;2022-08-16T01:59:55;9.80;;;7.57;;
173;SDS011;75;48.784;9.364;2022-08-16T02:02:21;8.73;;;7.27;;
173;SDS011;75;48.784;9.364;2022-08-16T02:04:48;9.77;;;7.70;;
173;SDS011;75;48.784;9.364;2022-08-16T02:07:15;11.10;;;8.00;;
173;SDS011;75;48.784;9.364;2022-08-16T02:09:43;9.43;;;7.33;;
173;SDS011;75;48.784;9.364;2022-08-16T02:12:10;9.97;;;7.90;;
173;SDS011;75;48.784;9.364;2022-08-16T02:14:37;9.20;;;7.53;;
173;SDS011;75;48.784;9.364;2022-08-16T02:17:05;8.93;;;7.20;;
173;SDS011;75;48.784;9.364;2022-08-16T02:19:34;8.40;;;7.50;;
173;SDS011;75;48.784;9.364;2022-08-16T02:22:01;9.50;;;7.93;;
173;SDS011;75;48.784;9.364;2022-08-16T02:24:28;9.00;;;7.87;;
173;SDS011;75;48.784;9.364;2022-08-16T02:26:55;9.17;;;7.87;;
173;SDS011;75;48.784;9.364;2022-08-16T02:29:21;10.00;;;7.83;;
173;SDS011;75;48.784;9.364;2022-08-16T02:31:47;10.63;;;8.10;;
173;SDS011;75;48.784;9.364;2022-08-16T02:34:14;10.50;;;7.90;;
173;SDS011;75;48.784;9.364;2022-08-16T02:36:41;9.47;;;7.40;;
173;SDS011;75;48.784;9.364;2022-08-16T02:39:07;10.17;;;7.83;;
173;SDS011;75;48.784;9.364;2022-08-16T02:41:36;10.00;;;7.77;;
173;SDS011;75;48.784;9.364;2022-08-16T02:44:04;10.10;;;8.20;;
173;SDS011;75;48.784;9.364;2022-08-16T02:46:31;9.77;;;7.70;;
173;SDS011;75;48.784;9.364;2022-08-16T02:48:57;12.53;;;8.20;;
173;SDS011;75;48.784;9.364;2022-08-16T02:51:23;10.70;;;7.47;;
173;SDS011;75;48.784;9.364;2022-08-16T02:53:49;12.80;;;7.77;;
173;SDS011;75;48.784;9.364;2022-08-16T02:56:16;8.37;;;7.70;;
173;SDS011;75;48.784;9.364;2022-08-16T02:58:46;9.00;;;8.17;;
173;SDS011;75;48.784;9.364;2022-08-16T03:01:15;8.60;;;7.87;;
173;SDS011;75;48.784;9.364;2022-08-16T03:03:42;11.53;;;8.10;;
173;SDS011;75;48.784;9.364;2022-08-16T03:06:08;11.20;;;7.80;;
173;SDS011;75;48.784;9.364;2022-08-16T03:08:34;9.50;;;7.50;;
173;SDS011;75;48.784;9.364;2022-08-16T03:11:00;10.13;;;8.10;;
173;SDS011;75;48.784;9.364;2022-08-16T03:13:26;13.97;;;8.87;;
173;SDS011;75;48.784;9.364;2022-08-16T03:15:52;14.20;;;8.50;;
173;SDS011;75;48.784;9.364;2022-08-16T03:18:18;11.47;;;8.77;;
173;SDS011;75;48.784;9.364;2022-08-16T03:20:44;12.60;;;8.70;;
173;SDS011;75;48.784;9.364;2022-08-16T03:23:09;10.07;;;7.90;;
173;SDS011;75;48.784;9.364;2022-08-16T03:25:35;9.60;;;8.20;;
173;SDS011;75;48.784;9.364;2022-08-16T03:28:02;10.20;;;8.13;;
173;SDS011;75;48.784;9.364;2022-08-16T03:30:30;8.47;;;7.03;;
173;SDS011;75;48.784;9.364;2022-08-16T03:32:57;9.97;;;7.97;;
173;SDS011;75;48.784;9.364;2022-08-16T03:35:26;11.77;;;8.43;;
173;SDS011;75;48.784;9.364;2022-08-16T03:37:55;9.20;;;7.73;;
173;SDS011;75;48.784;9.364;2022-08-16T03:40:22;12.53;;;8.60;;
173;SDS011;75;48.784;9.364;2022-08-16T03:42:49;9.77;;;8.30;;
173;SDS011;75;48.784;9.364;2022-08-16T03:45:15;9.63;;;8.23;;
173;SDS011;75;48.784;9.364;2022-08-16T03:47:41;10.37;;;8.37;;
173;SDS011;75;48.784;9.364;2022-08-16T03:50:09;10.50;;;8.00;;
173;SDS011;75;48.784;9.364;2022-08-16T03:52:35;9.87;;;8.23;;
173;SDS011;75;48.784;9.364;2022-08-16T03:55:01;10.77;;;8.37;;
173;SDS011;75;48.784;9.364;2022-08-16T03:57:28;10.37;;;8.77;;
173;SDS011;75;48.784;9.364;2022-08-16T03:59:55;9.47;;;7.90;;
173;SDS011;75;48.784;9.364;2022-08-16T04:02:20;10.97;;;8.80;;
173;SDS011;75;48.784;9.364;2022-08-16T04:04:46;11.27;;;9.53;;
173;SDS011;75;48.784;9.364;2022-08-16T04:07:13;10.17;;;9.13;;
173;SDS011;75;48.784;9.364;2022-08-16T04:09:40;11.90;;;9.00;;
173;SDS011;75;48.784;9.364;2022-08-16T04:12:07;11.30;;;9.07;;
173;SDS011;75;48.784;9.364;2022-08-16T04:14:34;14.13;;;8.97;;
173;SDS011;75;48.784;9.364;2022-08-16T04:16:59;13.90;;;8.83;;
173;SDS011;75;48.784;9.364;2022-08-16T04:19:26;14.00;;;9.07;;
173;SDS011;75;48.784;9.364;2022-08-16T04:21:51;10.90;;;8.80;;
173;SDS011;75;48.784;9.364;2022-08-16T04:24:17;12.57;;;8.87;;
173;SDS011;75;48.784;9.364;2022-08-16T04:26:43;10.57;;;8.50;;
173;SDS011;75;48.784;9.364;2022-08-16T04:29:09;11.60;;;9.03;;
173;SDS011;75;48.784;9.364;2022-08-16T04:31:35;10.00;;;8.00;;
173;SDS011;75;48.784;9.364;2022-08-16T04:34:02;10.97;;;9.40;;
173;SDS011;75;48.784;9.364;2022-08-16T04:36:28;11.33;;;9.20;;
173;SDS011;75;48.784;9.364;2022-08-16T04:38:55;11.20;;;8.87;;
173;SDS011;75;48.784;9.364;2022-08-16T04:41:20;10.93;;;8.80;;
173;SDS011;75;48.784;9.364;2022-08-16T04:43:47;10.77;;;8.90;;
173;SDS011;75;48.784;9.364;2022-08-16T04:46:13;10.00;;;8.80;;
173;SDS011;75;48.784;9.364;2022-08-16T04:48:39;10.53;;;8.67;;
173;SDS011;75;48.784;9.364;2022-08-16T04:51:06;11.00;;;8.13;;
173;SDS011;75;48.784;9.364;2022-08-16T04:53:33;9.50;;;8.50;;
173;SDS011;75;48.784;9.364;2022-08-16T04:55:59;10.63;;;8.50;;
173;SDS011;75;48.784;9.364;2022-08-16T04:58:25;9.50;;;8.37;;
173;SDS011;75;48.784;9.364;2022-08-16T05:00:51;10.47;;;8.30;;
173;SDS011;75;48.784;9.364;2022-08-16T05:03:17;11.53;;;8.43;;
173;SDS011;75;48.784;9.364;2022-08-16T05:05:43;10.80;;;7.70;;
173;SDS011;75;48.784;9.364;2022-08-16T05:08:11;9.63;;;7.90;;
173;SDS011;75;48.784;9.364;2022-08-16T05:10:37;8.43;;;7.23;;
173;SDS011;75;48.784;9.364;2022-08-16T05:13:03;11.50;;;7.70;;
173;SDS011;75;48.784;9.364;2022-08-16T05:15:30;11.90;;;8.00;;
173;SDS011;75;48.784;9.364;2022-08-16T05:17:56;9.20;;;7.27;;
173;SDS011;75;48.784;9.364;2022-08-16T05:20:21;8.57;;;7.53;;
173;SDS011;75;48.784;9.364;2022-08-16T05:22:47;11.37;;;7.77;;
173;SDS011;75;48.784;9.364;2022-08-16T05:25:13;8.70;;;7.00;;
173;SDS011;75;48.784;9.364;2022-08-16T05:27:40;9.33;;;7.20;;
173;SDS011;75;48.784;9.364;2022-08-16T05:30:07;8.20;;;6.93;;
173;SDS011;75;48.784;9.364;2022-08-16T05:32:34;7.60;;;6.80;;
173;SDS011;75;48.784;9.364;2022-08-16T05:35:01;16.23;;;10.90;;
173;SDS011;75;48.784;9.364;2022-08-16T05:37:31;19.53;;;10.77;;
173;SDS011;75;48.784;9.364;2022-08-16T05:39:58;20.03;;;11.70;;
173;SDS011;75;48.784;9.364;2022-08-16T05:42:24;17.80;;;10.80;;
173;SDS011;75;48.784;9.364;2022-08-16T05:44:49;14.20;;;9.37;;
173;SDS011;75;48.784;9.364;2022-08-16T05:47:15;12.03;;;8.57;;
173;SDS011;75;48.784;9.364;2022-08-16T05:49:41;14.30;;;8.70;;
173;SDS011;75;48.784;9.364;2022-08-16T05:52:07;12.93;;;8.90;;
173;SDS011;75;48.784;9.364;2022-08-16T05:54:34;14.90;;;8.77;;
173;SDS011;75;48.784;9.364;2022-08-16T05:56:59;14.13;;;9.30;;
173;SDS011;75;48.784;9.364;2022-08-16T05:59:25;12.77;;;8.60;;
173;SDS011;75;48.784;9.364;2022-08-16T06:01:51;10.10;;;7.90;;
173;SDS011;75;48.784;9.364;2022-08-16T06:04:17;13.70;;;8.13;;
173;SDS011;75;48.784;9.364;2022-08-16T06:06:44;9.37;;;7.23;;
173;SDS011;75;48.784;9.364;2022-08-16T06:09:10;10.00;;;7.20;;
173;SDS011;75;48.784;9.364;2022-08-16T06:11:37;9.70;;;7.40;;
173;SDS011;75;48.784;9.364;2022-08-16T06:14:03;11.63;;;8.93;;
173;SDS011;75;48.784;9.364;2022-08-16T06:16:29;11.60;;;8.10;;
173;SDS011;75;48.784;9.364;2022-08-16T06:18:55;10.70;;;8.40;;
173;SDS011;75;48.784;9.364;2022-08-16T06:21:20;11.93;;;8.70;;
173;SDS011;75;48.784;9.364;2022-08-16T06:23:46;11.27;;;8.23;;
173;SDS011;75;48.784;9.364;2022-08-16T06:26:12;9.43;;;7.60;;
173;SDS011;75;48.784;9.364;2022-08-16T06:28:38;9.33;;;7.20;;
173;SDS011;75;48.784;9.364;2022-08-16T06:31:05;9.20;;;6.90;;
173;SDS011;75;48.784;9.364;2022-08-16T06:33:31;13.23;;;6.83;;
173;SDS011;75;48.784;9.364;2022-08-16T06:35:56;6.87;;;6.50;;
173;SDS011;75;48.784;9.364;2022-08-16T06:38:22;11.03;;;7.27;;
173;SDS011;75;48.784;9.364;2022-08-16T06:40:48;7.63;;;6.40;;
173;SDS011;75;48.784;9.364;2022-08-16T06:43:15;9.13;;;6.80;;
173;SDS011;75;48.784;9.364;2022-08-16T06:45:40;9.47;;;7.27;;
173;SDS011;75;48.784;9.364;2022-08-16T06:48:07;10.30;;;7.43;;
173;SDS011;75;48.784;9.364;2022-08-16T06:50:34;11.00;;;7.67;;
173;SDS011;75;48.784;9.364;2022-08-16T06:53:00;11.00;;;7.27;;
173;SDS011;75;48.784;9.364;2022-08-16T06:55:27;8.23;;;6.80;;
173;SDS011;75;48.784;9.364;2022-08-16T06:57:54;8.67;;;7.10;;
173;SDS011;75;48.784;9.364;2022-08-16T07:00:20;10.23;;;6.87;;
173;SDS011;75;48.784;9.364;2022-08-16T07:02:48;10.97;;;7.90;;
173;SDS011;75;48.784;9.364;2022-08-16T07:05:15;9.70;;;7.50;;
173;SDS011;75;48.784;9.364;2022-08-16T07:07:42;11.37;;;7.57;;
173;SDS011;75;48.784;9.364;2022-08-16T07:10:09;9.70;;;7.07;;
173;SDS011;75;48.784;9.364;2022-08-16T07:12:37;9.20;;;7.30;;
173;SDS011;75;48.784;9.364;2022-08-16T07:15:04;7.97;;;6.83;;
173;SDS011;75;48.784;9.364;2022-08-16T07:17:31;8.60;;;7.00;;
173;SDS011;75;48.784;9.364;2022-08-16T07:19:57;8.30;;;6.50;;
173;SDS011;75;48.784;9.364;2022-08-16T07:22:25;10.93;;;6.80;;
173;SDS011;75;48.784;9.364;2022-08-16T07:24:50;8.20;;;6.90;;
173;SDS011;75;48.784;9.364;2022-08-16T07:27:16;7.77;;;6.63;;
173;SDS011;75;48.784;9.364;2022-08-16T07:29:42;8.50;;;6.90;;
173;SDS011;75;48.784;9.364;2022-08-16T07:32:08;9.40;;;7.00;;
173;SDS011;75;48.784;9.364;2022-08-16T07:34:34;8.50;;;6.43;;
173;SDS011;75;48.784;9.364;2022-08-16T07:37:02;7.87;;;7.20;;
173;SDS011;75;48.784;9.364;2022-08-16T07:39:30;9.00;;;7.43;;
173;SDS011;75;48.784;9.364;2022-08-16T07:41:56;8.13;;;6.90;;
173;SDS011;75;48.784;9.364;2022-08-16T07:44:22;9.57;;;7.60;;
173;SDS011;75;48.784;9.364;2022-08-16T07:46:48;12.30;;;8.07;;
173;SDS011;75;48.784;9.364;2022-08-16T07:49:13;12.93;;;7.63;;
173;SDS011;75;48.784;9.364;2022-08-16T07:51:39;7.90;;;7.10;;
173;SDS011;75;48.784;9.364;2022-08-16T07:54:06;13.07;;;7.73;;
173;SDS011;75;48.784;9.364;2022-08-16T07:56:33;10.50;;;7.70;;
173;SDS011;75;48.784;9.364;2022-08-16T07:58:59;8.87;;;7.43;;
173;SDS011;75;48.784;9.364;2022-08-16T08:01:25;10.10;;;7.50;;
173;SDS011;75;48.784;9.364;2022-08-16T08:03:52;9.10;;;7.20;;
173;SDS011;75;48.784;9.364;2022-08-16T08:06:19;9.30;;;7.53;;
173;SDS011;75;48.784;9.364;2022-08-16T08:08:46;7.97;;;7.60;;
173;SDS011;75;48.784;9.364;2022-08-16T08:11:12;10.63;;;8.10;;
173;SDS011;75;48.784;9.364;2022-08-16T08:13:38;11.63;;;8.07;;
173;SDS011;75;48.784;9.364;2022-08-16T08:16:04;9.87;;;8.07;;
173;SDS011;75;48.784;9.364;2022-08-16T08:18:30;9.33;;;8.37;;
173;SDS011;75;48.784;9.364;2022-08-16T08:20:55;10.33;;;8.70;;
173;SDS011;75;48.784;9.364;2022-08-16T08:23:21;11.03;;;8.50;;
173;SDS011;75;48.784;9.364;2022-08-16T08:25:48;11.73;;;8.30;;
173;SDS011;75;48.784;9.364;2022-08-16T08:28:14;13.97;;;8.53;;
173;SDS011;75;48.784;9.364;2022-08-16T08:30:40;10.80;;;7.73;;
173;SDS011;75;48.784;9.364;2022-08-16T08:33:06;9.30;;;8.30;;
173;SDS011;75;48.784;9.364;2022-08-16T08:35:32;8.30;;;7.53;;
173;SDS011;75;48.784;9.364;2022-08-16T08:37:58;9.73;;;8.70;;
173;SDS011;75;48.784;9.364;2022-08-16T08:40:25;9.60;;;8.27;;
173;SDS011;75;48.784;9.364;2022-08-16T08:42:52;13.10;;;9.00;;
173;SDS011;75;48.784;9.364;2022-08-16T08:45:18;11.23;;;8.83;;
173;SDS011;75;48.784;9.364;2022-08-16T08:47:44;13.03;;;8.87;;
173;SDS011;75;48.784;9.364;2022-08-16T08:50:11;13.27;;;9.40;;
173;SDS011;75;48.784;9.364;2022-08-16T08:52:38;9.57;;;8.13;;
173;SDS011;75;48.784;9.364;2022-08-16T08:55:05;9.67;;;7.80;;
173;SDS011;75;48.784;9.364;2022-08-16T08:57:32;11.23;;;8.20;;
173;SDS011;75;48.784;9.364;2022-08-16T08:59:58;12.27;;;8.30;;
173;SDS011;75;48.784;9.364;2022-08-16T09:02:24;10.83;;;8.40;;
173;SDS011;75;48.784;9.364;2022-08-16T09:04:49;11.50;;;8.10;;
173;SDS011;75;48.784;9.364;2022-08-16T09:07:15;8.70;;;7.87;;
173;SDS011;75;48.784;9.364;2022-08-16T09:09:41;10.13;;;7.80;;
173;SDS011;75;48.784;9.364;2022-08-16T09:12:07;8.20;;;7.70;;
173;SDS011;75;48.784;9.364;2022-08-16T09:14:36;9.77;;;7.70;;
173;SDS011;75;48.784;9.364;2022-08-16T09:17:04;9.20;;;7.67;;
173;SDS011;75;48.784;9.364;2022-08-16T09:19:31;10.00;;;7.47;;
173;SDS011;75;48.784;9.364;2022-08-16T09:21:57;9.37;;;7.50;;
173;SDS011;75;48.784;9.364;2022-08-16T09:24:23;9.20;;;8.10;;
173;SDS011;75;48.784;9.364;2022-08-16T09:26:49;8.50;;;7.70;;
173;SDS011;75;48.784;9.364;2022-08-16T09:29:14;9.13;;;7.20;;
173;SDS011;75;48.784;9.364;2022-08-16T09:31:40;12.10;;;7.70;;
173;SDS011;75;48.784;9.364;2022-08-16T09:34:06;11.13;;;7.60;;
173;SDS011;75;48.784;9.364;2022-08-16T09:36:31;8.53;;;7.10;;
173;SDS011;75;48.784;9.364;2022-08-16T09:38:57;11.93;;;7.90;;
173;SDS011;75;48.784;9.364;2022-08-16T09:41:23;9.47;;;7.63;;
173;SDS011;75;48.784;9.364;2022-08-16T09:43:49;8.30;;;7.33;;
173;SDS011;75;48.784;9.364;2022-08-16T09:46:15;7.60;;;7.17;;
173;SDS011;75;48.784;9.364;2022-08-16T09:48:41;8.60;;;7.03;;
173;SDS011;75;48.784;9.364;2022-08-16T09:51:08;10.80;;;7.67;;
173;SDS011;75;48.784;9.364;2022-08-16T09:53:34;8.97;;;6.87;;
173;SDS011;75;48.784;9.364;2022-08-16T09:56:01;8.10;;;6.67;;
173;SDS011;75;48.784;9.364;2022-08-16T09:58:28;10.23;;;7.10;;
173;SDS011;75;48.784;9.364;2022-08-16T10:00:54;8.07;;;7.17;;
173;SDS011;75;48.784;9.364;2022-08-16T10:03:20;8.80;;;7.50;;
173;SDS011;75;48.784;9.364;2022-08-16T10:05:47;8.60;;;6.73;;
173;SDS011;75;48.784;9.364;2022-08-16T10:08:13;8.07;;;7.20;;
173;SDS011;75;48.784;9.364;2022-08-16T10:10:40;10.17;;;7.40;;
173;SDS011;75;48.784;9.364;2022-08-16T10:13:27;12.70;;;6.70;;
173;SDS011;75;48.784;9.364;2022-08-16T10:15:53;10.83;;;7.30;;
173;SDS011;75;48.784;9.364;2022-08-16T10:18:23;7.37;;;6.97;;
173;SDS011;75;48.784;9.364;2022-08-16T10:20:54;7.70;;;6.73;;
173;SDS011;75;48.784;9.364;2022-08-16T10:23:20;9.43;;;7.20;;
173;SDS011;75;48.784;9.364;2022-08-16T10:25:46;8.13;;;7.30;;
173;SDS011;75;48.784;9.364;2022-08-16T10:28:14;12.33;;;7.77;;
173;SDS011;75;48.784;9.364;2022-08-16T10:30:41;7.80;;;6.90;;
173;SDS011;75;48.784;9.364;2022-08-16T10:33:07;8.77;;;7.73;;
173;SDS011;75;48.784;9.364;2022-08-16T10:35:34;9.03;;;7.03;;
173;SDS011;75;48.784;9.364;2022-08-16T10:38:00;7.37;;;6.97;;
173;SDS011;75;48.784;9.364;2022-08-16T10:40:26;8.20;;;6.90;;
173;SDS011;75;48.784;9.364;2022-08-16T10:42:52;10.87;;;7.50;;
173;SDS011;75;48.784;9.364;2022-08-16T10:45:18;9.27;;;7.57;;
173;SDS011;75;48.784;9.364;2022-08-16T10:47:44;7.43;;;6.80;;
173;SDS011;75;48.784;9.364;2022-08-16T10:50:10;9.23;;;7.07;;
173;SDS011;75;48.784;9.364;2022-08-16T10:52:36;11.60;;;7.23;;
173;SDS011;75;48.784;9.364;2022-08-16T10:55:03;8.80;;;7.67;;
173;SDS011;75;48.784;9.364;2022-08-16T10:57:31;7.40;;;7.00;;
173;SDS011;75;48.784;9.364;2022-08-16T10:59:57;8.80;;;7.37;;
173;SDS011;75;48.784;9.364;2022-08-16T11:02:23;8.80;;;7.03;;
173;SDS011;75;48.784;9.364;2022-08-16T11:04:49;7.87;;;7.10;;
173;SDS011;75;48.784;9.364;2022-08-16T11:07:15;8.40;;;7.10;;
173;SDS011;75;48.784;9.364;2022-08-16T11:09:41;8.33;;;6.93;;
173;SDS011;75;48.784;9.364;2022-08-16T11:12:07;9.67;;;7.43;;
173;SDS011;75;48.784;9.364;2022-08-16T11:14:33;9.43;;;6.93;;
173;SDS011;75;48.784;9.364;2022-08-16T11:17:00;8.37;;;7.00;;
173;SDS011;75;48.784;9.364;2022-08-16T11:19:28;7.00;;;6.63;;
173;SDS011;75;48.784;9.364;2022-08-16T11:21:54;9.00;;;6.93;;
173;SDS011;75;48.784;9.364;2022-08-16T11:24:20;7.40;;;6.93;;
173;SDS011;75;48.784;9.364;2022-08-16T11:26:46;9.40;;;6.50;;
173;SDS011;75;48.784;9.364;2022-08-16T11:29:12;7.67;;;6.60;;
173;SDS011;75;48.784;9.364;2022-08-16T11:31:38;7.40;;;6.97;;
173;SDS011;75;48.784;9.364;2022-08-16T11:34:04;8.27;;;6.77;;
173;SDS011;75;48.784;9.364;2022-08-16T11:36:30;8.33;;;6.60;;
173;SDS011;75;48.784;9.364;2022-08-16T11:38:56;7.20;;;6.57;;
173;SDS011;75;48.784;9.364;2022-08-16T11:41:23;11.10;;;6.10;;
173;SDS011;75;48.784;9.364;2022-08-16T11:43:52;7.63;;;6.10;;
173;SDS011;75;48.784;9.364;2022-08-16T11:46:18;9.33;;;6.17;;
173;SDS011;75;48.784;9.364;2022-08-16T11:48:44;7.67;;;6.40;;
173;SDS011;75;48.784;9.364;2022-08-16T11:51:10;12.00;;;6.40;;
173;SDS011;75;48.784;9.364;2022-08-16T11:53:36;9.00;;;6.87;;
173;SDS011;75;48.784;9.364;2022-08-16T11:56:02;8.83;;;6.50;;
173;SDS011;75;48.784;9.364;2022-08-16T11:58:29;8.07;;;7.10;;
173;SDS011;75;48.784;9.364;2022-08-16T12:00:56;7.03;;;6.17;;
173;SDS011;75;48.784;9.364;2022-08-16T12:03:24;7.00;;;6.40;;
173;SDS011;75;48.784;9.364;2022-08-16T12:05:52;7.73;;;6.40;;
173;SDS011;75;48.784;9.364;2022-08-16T12:08:19;6.77;;;6.40;;
173;SDS011;75;48.784;9.364;2022-08-16T12:10:45;7.47;;;6.20;;
173;SDS011;75;48.784;9.364;2022-08-16T12:13:11;9.20;;;6.50;;
173;SDS011;75;48.784;9.364;2022-08-16T12:15:37;7.83;;;6.53;;
173;SDS011;75;48.784;9.364;2022-08-16T12:18:05;6.20;;;5.77;;
173;SDS011;75;48.784;9.364;2022-08-16T12:20:33;10.20;;;6.53;;
173;SDS011;75;48.784;9.364;2022-08-16T12:23:00;7.00;;;6.30;;
173;SDS011;75;48.784;9.364;2022-08-16T12:25:28;9.33;;;6.47;;
173;SDS011;75;48.784;9.364;2022-08-16T12:27:56;7.17;;;6.53;;
173;SDS011;75;48.784;9.364;2022-08-16T12:30:26;9.83;;;6.47;;
173;SDS011;75;48.784;9.364;2022-08-16T12:32:54;8.73;;;5.60;;
173;SDS011;75;48.784;9.364;2022-08-16T12:35:21;7.13;;;6.00;;
173;SDS011;75;48.784;9.364;2022-08-16T12:37:48;6.80;;;5.80;;
173;SDS011;75;48.784;9.364;2022-08-16T12:40:20;6.00;;;5.77;;
173;SDS011;75;48.784;9.364;2022-08-16T12:42:47;9.20;;;6.70;;
173;SDS011;75;48.784;9.364;2022-08-16T12:45:14;8.97;;;6.60;;
173;SDS011;75;48.784;9.364;2022-08-16T12:47:41;8.63;;;7.00;;
173;SDS011;75;48.784;9.364;2022-08-16T12:50:26;7.60;;;6.70;;
173;SDS011;75;48.784;9.364;2022-08-16T12:52:52;8.83;;;6.97;;
173;SDS011;75;48.784;9.364;2022-08-16T12:55:18;8.40;;;7.00;;
173;SDS011;75;48.784;9.364;2022-08-16T12:57:46;10.50;;;7.03;;
173;SDS011;75;48.784;9.364;2022-08-16T13:00:12;7.80;;;6.63;;
173;SDS011;75;48.784;9.364;2022-08-16T13:02:41;8.53;;;6.30;;
173;SDS011;75;48.784;9.364;2022-08-16T13:05:07;9.63;;;6.97;;
173;SDS011;75;48.784;9.364;2022-08-16T13:07:35;7.50;;;6.50;;
173;SDS011;75;48.784;9.364;2022-08-16T13:10:01;10.83;;;6.50;;
173;SDS011;75;48.784;9.364;2022-08-16T13:12:34;7.60;;;6.20;;
173;SDS011;75;48.784;9.364;2022-08-16T13:15:03;7.10;;;6.50;;
173;SDS011;75;48.784;9.364;2022-08-16T13:17:30;8.20;;;6.17;;
173;SDS011;75;48.784;9.364;2022-08-16T13:19:56;9.20;;;6.03;;
173;SDS011;75;48.784;9.364;2022-08-16T13:22:23;7.80;;;6.57;;
173;SDS011;75;48.784;9.364;2022-08-16T13:24:49;7.73;;;6.27;;
173;SDS011;75;48.784;9.364;2022-08-16T13:27:16;7.80;;;6.40;;
173;SDS011;75;48.784;9.364;2022-08-16T13:29:42;6.73;;;6.23;;
173;SDS011;75;48.784;9.364;2022-08-16T13:32:08;8.00;;;6.10;;
173;SDS011;75;48.784;9.364;2022-08-16T13:34:34;7.87;;;6.03;;
173;SDS011;75;48.784;9.364;2022-08-16T13:37:00;7.23;;;6.70;;
173;SDS011;75;48.784;9.364;2022-08-16T13:39:26;6.50;;;6.17;;
173;SDS011;75;48.784;9.364;2022-08-16T13:41:51;8.80;;;6.20;;
173;SDS011;75;48.784;9.364;2022-08-16T13:44:17;6.50;;;5.90;;
173;SDS011;75;48.784;9.364;2022-08-16T13:46:43;9.43;;;6.47;;
173;SDS011;75;48.784;9.364;2022-08-16T13:49:11;8.83;;;6.63;;
173;SDS011;75;48.784;9.364;2022-08-16T13:51:37;7.80;;;6.47;;
173;SDS011;75;48.784;9.364;2022-08-16T13:54:04;8.20;;;6.43;;
173;SDS011;75;48.784;9.364;2022-08-16T13:56:31;8.77;;;6.50;;
173;SDS011;75;48.784;9.364;2022-08-16T13:58:59;8.20;;;6.70;;
173;SDS011;75;48.784;9.364;2022-08-16T14:01:25;7.07;;;6.40;;
173;SDS011;75;48.784;9.364;2022-08-16T14:03:51;7.00;;;6.60;;
173;SDS011;75;48.784;9.364;2022-08-16T14:06:18;12.60;;;6.67;;
173;SDS011;75;48.784;9.364;2022-08-16T14:08:43;7.80;;;6.37;;
173;SDS011;75;48.784;9.364;2022-08-16T14:11:10;7.77;;;6.63;;
173;SDS011;75;48.784;9.364;2022-08-16T14:13:37;7.50;;;6.40;;
173;SDS011;75;48.784;9.364;2022-08-16T14:16:03;8.33;;;6.60;;
173;SDS011;75;48.784;9.364;2022-08-16T14:18:29;8.03;;;6.57;;
173;SDS011;75;48.784;9.364;2022-08-16T14:20:54;10.00;;;6.57;;
173;SDS011;75;48.784;9.364;2022-08-16T14:23:20;8.90;;;6.50;;
173;SDS011;75;48.784;9.364;2022-08-16T14:25:47;8.43;;;6.50;;
173;SDS011;75;48.784;9.364;2022-08-16T14:28:12;10.70;;;6.83;;
173;SDS011;75;48.784;9.364;2022-08-16T14:30:38;7.10;;;6.30;;
173;SDS011;75;48.784;9.364;2022-08-16T14:33:04;9.17;;;6.47;;
173;SDS011;75;48.784;9.364;2022-08-16T14:35:31;8.63;;;6.60;;
173;SDS011;75;48.784;9.364;2022-08-16T14:37:57;10.03;;;6.70;;
173;SDS011;75;48.784;9.364;2022-08-16T14:40:23;7.57;;;6.20;;
173;SDS011;75;48.784;9.364;2022-08-16T14:42:49;8.47;;;6.23;;
173;SDS011;75;48.784;9.364;2022-08-16T14:45:16;9.43;;;6.37;;
173;SDS011;75;48.784;9.364;2022-08-16T14:47:44;8.40;;;6.20;;
173;SDS011;75;48.784;9.364;2022-08-16T14:50:12;7.13;;;6.07;;
173;SDS011;75;48.784;9.364;2022-08-16T14:52:40;7.83;;;6.47;;
173;SDS011;75;48.784;9.364;2022-08-16T14:55:07;8.63;;;6.70;;
173;SDS011;75;48.784;9.364;2022-08-16T14:57:34;8.03;;;6.33;;
173;SDS011;75;48.784;9.364;2022-08-16T15:00:00;7.00;;;6.33;;
173;SDS011;75;48.784;9.364;2022-08-16T15:02:26;7.30;;;6.50;;
173;SDS011;75;48.784;9.364;2022-08-16T15:04:52;7.00;;;6.27;;
173;SDS011;75;48.784;9.364;2022-08-16T15:07:19;9.33;;;6.30;;
173;SDS011;75;48.784;9.364;2022-08-16T15:09:46;8.50;;;6.27;;
173;SDS011;75;48.784;9.364;2022-08-16T15:12:14;6.90;;;5.90;;
173;SDS011;75;48.784;9.364;2022-08-16T15:14:42;7.83;;;6.90;;
173;SDS011;75;48.784;9.364;2022-08-16T15:17:09;9.27;;;6.20;;
173;SDS011;75;48.784;9.364;2022-08-16T15:19:36;7.03;;;6.40;;
173;SDS011;75;48.784;9.364;2022-08-16T15:22:02;7.70;;;6.50;;
173;SDS011;75;48.784;9.364;2022-08-16T15:24:34;8.70;;;6.57;;
173;SDS011;75;48.784;9.364;2022-08-16T15:27:00;8.33;;;6.57;;
173;SDS011;75;48.784;9.364;2022-08-16T15:29:26;6.73;;;5.77;;
173;SDS011;75;48.784;9.364;2022-08-16T15:31:51;7.90;;;6.30;;
173;SDS011;75;48.784;9.364;2022-08-16T15:34:17;7.13;;;6.33;;
173;SDS011;75;48.784;9.364;2022-08-16T15:36:43;8.20;;;6.37;;
173;SDS011;75;48.784;9.364;2022-08-16T15:39:08;7.80;;;6.40;;
173;SDS011;75;48.784;9.364;2022-08-16T15:44:04;8.07;;;6.37;;
173;SDS011;75;48.784;9.364;2022-08-16T15:46:31;9.80;;;6.60;;
173;SDS011;75;48.784;9.364;2022-08-16T15:48:57;10.63;;;6.60;;
173;SDS011;75;48.784;9.364;2022-08-16T15:51:23;7.27;;;6.10;;
173;SDS011;75;48.784;9.364;2022-08-16T15:53:49;7.27;;;6.23;;